Branch, Wisconsin
Current Conditions -  °F | °C
As of 4:56 AM on Monday 20 Oct 2014 (Local Time) from KMTW Reporting Station
Clear Clear  
Wind Chill: 45°   Ceiling: Unl
Heat Index: 48°   Visibility: 10mi
Dew Point: 44°   Wind: 7mph
Humidity: 86%   Direction: 260°W
Pressure: 29.76"   Gusts: NA
Location:  44.15°N, 87.76°W
Report Text: KMTW 200956Z AUTO 26006KT 10SM CLR 09/07 A2976 RMK AO2 SLP102 T00890067
Loading
Personal Weather Stations






























Interactive Weather Map
Tropical Storm Tracking
New forecast layout! Learn more

10-Day Weather Forecast

Advertisements
Track Severe Weather on mobile